Time;durP1;ratioP1;P1;durP2;ratioP2;P2;SDS_P1;SDS_P2;PMS_P1;PMS_P2;Temp;Humidity;BMP_temperature;BMP_pressure;BME280_temperature;BME280_humidity;BME280_pressure;Samples;Min_cycle;Max_cycle;Signal;HPM_P1;HPM_P2
2022/12/27 00:00:20;;;;;;;;;;;21.80;38.80;;;;;;500180;237;2151;-43
2022/12/27 00:02:22;;;;;;;;;;;21.80;38.90;;;;;;500200;237;3041;-43
2022/12/27 00:04:23;;;;;;;;;;;21.80;38.90;;;;;;500170;237;3043;-42
2022/12/27 00:06:25;;;;;;;;;;;21.80;38.90;;;;;;500222;237;2211;-43
2022/12/27 00:08:26;;;;;;;;;;;21.70;39.00;;;;;;500224;237;2116;-41
2022/12/27 00:10:27;;;;;;;;;;;21.70;39.10;;;;;;500168;237;2076;-44
2022/12/27 00:12:29;;;;;;;;;;;21.70;39.10;;;;;;500204;237;1905;-42
2022/12/27 00:14:30;;;;;;;;;;;21.70;39.00;;;;;;500256;237;2101;-43
2022/12/27 00:16:32;;;;;;;;;;;21.70;39.00;;;;;;500181;237;2318;-42
2022/12/27 00:18:33;;;;;;;;;;;21.60;39.10;;;;;;500028;237;2167;-43
2022/12/27 00:20:34;;;;;;;;;;;21.60;39.10;;;;;;500090;237;2376;-43
2022/12/27 00:22:36;;;;;;;;;;;21.60;39.10;;;;;;499975;237;2470;-43
2022/12/27 00:24:38;;;;;;;;;;;21.70;39.00;;;;;;499960;237;2669;-43
2022/12/27 00:26:40;;;;;;;;;;;21.70;39.00;;;;;;500168;237;2041;-44
2022/12/27 00:28:40;;;;;;;;;;;21.70;39.00;;;;;;499976;238;1730;-43
2022/12/27 00:30:43;;;;;;;;;;;21.70;39.00;;;;;;500226;237;2076;-40
2022/12/27 00:32:44;;;;;;;;;;;21.70;39.10;;;;;;500013;237;1786;-43
2022/12/27 00:34:45;;;;;;;;;;;21.70;39.00;;;;;;500071;237;2306;-44
2022/12/27 00:36:47;;;;;;;;;;;21.70;39.10;;;;;;500349;237;2048;-43
2022/12/27 00:38:48;;;;;;;;;;;21.70;39.10;;;;;;500287;237;1938;-43
2022/12/27 00:40:50;;;;;;;;;;;21.60;39.10;;;;;;500159;237;2171;-44
2022/12/27 00:42:51;;;;;;;;;;;21.60;39.10;;;;;;500233;237;1952;-43
2022/12/27 00:44:54;;;;;;;;;;;21.60;39.10;;;;;;500362;237;2613;-43
2022/12/27 00:46:55;;;;;;;;;;;21.60;39.10;;;;;;500215;237;1936;-43
2022/12/27 00:48:57;;;;;;;;;;;21.60;39.10;;;;;;500438;237;2073;-44
2022/12/27 00:50:59;;;;;;;;;;;21.60;39.20;;;;;;500337;237;3407;-43
2022/12/27 00:53:00;;;;;;;;;;;21.50;39.20;;;;;;500353;237;1930;-44
2022/12/27 00:55:02;;;;;;;;;;;21.50;39.20;;;;;;500203;237;2233;-43
2022/12/27 00:57:04;;;;;;;;;;;21.60;39.20;;;;;;500261;237;1971;-43
2022/12/27 00:59:05;;;;;;;;;;;21.60;39.20;;;;;;500283;237;2211;-43
2022/12/27 01:01:07;;;;;;;;;;;21.60;39.20;;;;;;500369;237;2341;-44
2022/12/27 01:03:08;;;;;;;;;;;21.60;39.20;;;;;;500408;237;1886;-43
2022/12/27 01:05:09;;;;;;;;;;;21.60;39.20;;;;;;500456;237;2262;-43
2022/12/27 01:07:11;;;;;;;;;;;21.60;39.20;;;;;;500228;237;1971;-44
2022/12/27 01:09:12;;;;;;;;;;;21.60;39.30;;;;;;500264;237;1673;-44
2022/12/27 01:11:13;;;;;;;;;;;21.70;39.00;;;;;;500399;237;1959;-44
2022/12/27 01:13:15;;;;;;;;;;;21.90;38.70;;;;;;500424;237;1467;-43
2022/12/27 01:15:16;;;;;;;;;;;22.10;38.40;;;;;;500335;237;1533;-44
2022/12/27 01:17:17;;;;;;;;;;;22.20;38.00;;;;;;500422;237;1926;-40
2022/12/27 01:19:19;;;;;;;;;;;22.30;37.90;;;;;;500324;237;2172;-40
2022/12/27 01:21:20;;;;;;;;;;;22.40;37.80;;;;;;500416;237;1888;-43
2022/12/27 01:23:22;;;;;;;;;;;22.20;37.90;;;;;;500530;237;1917;-44
2022/12/27 01:25:23;;;;;;;;;;;22.10;38.20;;;;;;500243;237;2818;-43
2022/12/27 01:27:25;;;;;;;;;;;22.00;38.40;;;;;;500478;237;2387;-43
2022/12/27 01:29:26;;;;;;;;;;;21.90;38.60;;;;;;500268;237;1830;-42
2022/12/27 01:31:28;;;;;;;;;;;21.80;38.80;;;;;;500320;237;1686;-44
2022/12/27 01:33:29;;;;;;;;;;;21.70;38.80;;;;;;500169;237;1856;-40
2022/12/27 01:35:30;;;;;;;;;;;21.70;38.80;;;;;;500131;237;2308;-43
2022/12/27 01:37:31;;;;;;;;;;;21.90;38.80;;;;;;500211;237;2400;-43
2022/12/27 01:39:33;;;;;;;;;;;22.00;38.40;;;;;;500190;237;2196;-43
2022/12/27 01:43:55;;;;;;;;;;;22.30;37.80;;;;;;500288;238;2015;-43
2022/12/27 01:45:56;;;;;;;;;;;22.40;37.70;;;;;;500306;237;1738;-43
2022/12/27 01:47:57;;;;;;;;;;;22.40;37.60;;;;;;500296;238;2089;-43
2022/12/27 01:49:59;;;;;;;;;;;22.20;37.80;;;;;;500255;237;1678;-44
2022/12/27 01:52:01;;;;;;;;;;;22.10;38.20;;;;;;500335;237;2403;-44
2022/12/27 01:54:02;;;;;;;;;;;22.00;38.50;;;;;;500305;237;1835;-44
2022/12/27 01:56:04;;;;;;;;;;;21.90;38.60;;;;;;500485;237;1909;-43
2022/12/27 01:58:05;;;;;;;;;;;21.70;38.80;;;;;;500354;237;1860;-43
2022/12/27 02:00:07;;;;;;;;;;;21.70;39.00;;;;;;500190;237;2140;-44
2022/12/27 02:02:09;;;;;;;;;;;21.60;39.10;;;;;;500107;237;1855;-43
2022/12/27 02:04:10;;;;;;;;;;;21.60;39.10;;;;;;500126;237;1878;-43
2022/12/27 02:06:11;;;;;;;;;;;21.60;39.10;;;;;;500165;237;1887;-41
2022/12/27 02:08:13;;;;;;;;;;;21.60;39.10;;;;;;500179;237;2204;-42
2022/12/27 02:10:15;;;;;;;;;;;21.60;39.20;;;;;;500136;237;1892;-43
2022/12/27 02:12:16;;;;;;;;;;;21.60;39.20;;;;;;500017;237;1712;-43
2022/12/27 02:14:18;;;;;;;;;;;21.50;39.20;;;;;;500021;237;2167;-43
2022/12/27 02:16:19;;;;;;;;;;;21.60;39.30;;;;;;500162;237;2374;-44
2022/12/27 02:18:20;;;;;;;;;;;21.50;39.20;;;;;;500142;237;1730;-43
2022/12/27 02:20:22;;;;;;;;;;;21.50;39.20;;;;;;500147;237;2153;-40
2022/12/27 02:22:24;;;;;;;;;;;21.50;39.30;;;;;;500311;237;1678;-43
2022/12/27 02:24:25;;;;;;;;;;;21.50;39.20;;;;;;500412;237;1944;-43
2022/12/27 02:26:28;;;;;;;;;;;21.50;39.30;;;;;;500317;237;2172;-43
2022/12/27 02:28:29;;;;;;;;;;;21.50;39.30;;;;;;500468;237;1691;-42
2022/12/27 02:30:30;;;;;;;;;;;21.50;39.30;;;;;;500361;237;1678;-43
2022/12/27 02:32:32;;;;;;;;;;;21.40;39.30;;;;;;500462;237;1825;-44
2022/12/27 02:34:34;;;;;;;;;;;21.40;39.40;;;;;;500400;237;1578;-44
2022/12/27 02:36:35;;;;;;;;;;;21.40;39.40;;;;;;500427;237;2248;-43
2022/12/27 02:38:36;;;;;;;;;;;21.40;39.50;;;;;;500392;237;2325;-43
2022/12/27 02:54:34;;;;;;;;;;;21.30;39.60;;;;;;500241;238;1598;-44
2022/12/27 02:58:55;;;;;;;;;;;21.30;39.50;;;;;;500209;238;1724;-43
2022/12/27 03:03:23;;;;;;;;;;;21.30;39.40;;;;;;500219;238;2239;-44
2022/12/27 03:05:24;;;;;;;;;;;21.30;39.50;;;;;;500229;237;2121;-42
2022/12/27 03:07:25;;;;;;;;;;;21.30;39.50;;;;;;500186;237;1832;-43
2022/12/27 03:16:24;;;;;;;;;;;21.40;39.20;;;;;;500362;238;1613;-43
2022/12/27 03:18:26;;;;;;;;;;;21.60;39.10;;;;;;500410;237;1889;-43
2022/12/27 03:27:27;;;;;;;;;;;22.20;37.90;;;;;;500330;238;2209;-43
2022/12/27 03:34:30;;;;;;;;;;;22.30;37.70;;;;;;500343;238;2399;-43
2022/12/27 03:38:33;;;;;;;;;;;22.00;38.10;;;;;;500394;238;1854;-43
2022/12/27 03:40:28;;;;;;;;;;;21.90;38.40;;;;;;499844;238;2196;-44
2022/12/27 03:44:49;;;;;;;;;;;21.80;38.70;;;;;;500297;238;1679;-43
2022/12/27 03:46:51;;;;;;;;;;;21.70;38.80;;;;;;500584;237;1908;-43
2022/12/27 03:48:52;;;;;;;;;;;21.70;38.80;;;;;;500405;237;1984;-44
2022/12/27 03:50:54;;;;;;;;;;;21.60;38.90;;;;;;500402;237;2681;-42
2022/12/27 03:52:56;;;;;;;;;;;21.60;39.00;;;;;;500284;237;2131;-43
2022/12/27 03:54:57;;;;;;;;;;;21.60;39.00;;;;;;500265;237;2722;-43
2022/12/27 03:56:59;;;;;;;;;;;21.60;39.00;;;;;;500279;237;1955;-43
2022/12/27 03:59:01;;;;;;;;;;;21.60;39.00;;;;;;500334;237;2712;-44
2022/12/27 04:01:02;;;;;;;;;;;21.60;39.00;;;;;;500393;237;2850;-43
2022/12/27 04:03:04;;;;;;;;;;;21.50;39.00;;;;;;500543;237;2023;-40
2022/12/27 04:05:05;;;;;;;;;;;21.50;39.00;;;;;;500395;237;1691;-42
2022/12/27 04:07:07;;;;;;;;;;;21.50;39.00;;;;;;500342;238;1845;-44
2022/12/27 04:34:43;;;;;;;;;;;21.50;39.00;;;;;;500394;238;1897;-43
2022/12/27 04:36:45;;;;;;;;;;;21.60;39.00;;;;;;500396;237;2135;-43
2022/12/27 04:38:46;;;;;;;;;;;21.50;39.00;;;;;;500356;237;1603;-44
2022/12/27 04:54:56;;;;;;;;;;;21.40;39.10;;;;;;500355;238;2094;-43
2022/12/27 04:56:57;;;;;;;;;;;21.40;39.10;;;;;;500306;237;2128;-40
2022/12/27 05:03:37;;;;;;;;;;;21.40;39.10;;;;;;500271;238;2885;-42
2022/12/27 05:05:39;;;;;;;;;;;21.40;39.20;;;;;;500177;237;3737;-43
2022/12/27 05:14:40;;;;;;;;;;;21.40;39.20;;;;;;489431;238;1716;-41
2022/12/27 05:16:41;;;;;;;;;;;21.40;39.10;;;;;;500368;238;4256;-43
2022/12/27 05:18:43;;;;;;;;;;;21.40;39.20;;;;;;500386;237;1851;-43
2022/12/27 05:20:44;;;;;;;;;;;21.40;39.20;;;;;;500512;237;2502;-42
2022/12/27 05:27:26;;;;;;;;;;;21.30;39.20;;;;;;500551;238;2361;-43
2022/12/27 05:29:34;;;;;;;;;;;21.30;39.20;;;;;;500587;237;2084;-43
2022/12/27 05:31:30;;;;;;;;;;;21.30;39.20;;;;;;500194;238;1797;-40
2022/12/27 05:33:31;;;;;;;;;;;21.40;39.30;;;;;;500760;237;1616;-43
2022/12/27 05:35:33;;;;;;;;;;;21.30;39.30;;;;;;500513;237;1668;-42
2022/12/27 05:37:35;;;;;;;;;;;21.30;39.30;;;;;;500524;237;2917;-43
2022/12/27 05:39:36;;;;;;;;;;;21.30;39.40;;;;;;500563;237;2507;-40
2022/12/27 05:41:38;;;;;;;;;;;21.20;39.40;;;;;;500657;237;2443;-41
2022/12/27 05:43:39;;;;;;;;;;;21.30;39.40;;;;;;500485;237;1541;-41
2022/12/27 05:45:41;;;;;;;;;;;21.30;39.30;;;;;;500551;237;1836;-43
2022/12/27 05:47:42;;;;;;;;;;;21.30;39.30;;;;;;500535;237;1721;-43
2022/12/27 05:49:44;;;;;;;;;;;21.30;39.20;;;;;;500394;237;1686;-43
2022/12/27 05:51:46;;;;;;;;;;;21.30;39.30;;;;;;500504;237;3946;-40
2022/12/27 05:53:47;;;;;;;;;;;21.30;39.30;;;;;;500509;237;2376;-42
2022/12/27 05:55:48;;;;;;;;;;;21.30;39.30;;;;;;500549;237;2658;-43
2022/12/27 05:57:50;;;;;;;;;;;21.30;39.20;;;;;;500400;237;1698;-43
2022/12/27 05:59:53;;;;;;;;;;;21.30;39.20;;;;;;500720;237;1943;-42
2022/12/27 06:01:58;;;;;;;;;;;21.30;39.20;;;;;;500524;237;2375;-43
2022/12/27 06:04:00;;;;;;;;;;;21.30;39.20;;;;;;500551;237;2222;-41
2022/12/27 06:06:01;;;;;;;;;;;21.30;39.20;;;;;;500499;237;1688;-40
2022/12/27 06:08:03;;;;;;;;;;;21.20;39.20;;;;;;500608;237;1947;-42
2022/12/27 06:10:05;;;;;;;;;;;21.30;39.30;;;;;;500791;237;2223;-42
2022/12/27 06:12:07;;;;;;;;;;;21.30;39.30;;;;;;500633;237;1698;-40
2022/12/27 06:14:11;;;;;;;;;;;21.20;39.30;;;;;;500514;237;2340;-40
2022/12/27 06:16:12;;;;;;;;;;;21.20;39.30;;;;;;500493;237;1675;-42
2022/12/27 06:18:13;;;;;;;;;;;21.20;39.30;;;;;;500536;237;2327;-41
2022/12/27 06:20:15;;;;;;;;;;;21.20;39.30;;;;;;500607;237;1730;-43
2022/12/27 06:22:17;;;;;;;;;;;21.20;39.40;;;;;;500601;237;2172;-40
2022/12/27 06:24:18;;;;;;;;;;;21.20;39.40;;;;;;500683;237;1848;-42
2022/12/27 06:26:20;;;;;;;;;;;21.20;39.40;;;;;;500554;237;2706;-44
2022/12/27 06:28:21;;;;;;;;;;;21.20;39.30;;;;;;500353;237;1695;-43
2022/12/27 06:30:23;;;;;;;;;;;21.20;39.30;;;;;;500466;237;2091;-44
2022/12/27 06:32:25;;;;;;;;;;;21.20;39.30;;;;;;500593;237;1844;-41
2022/12/27 06:34:27;;;;;;;;;;;21.20;39.30;;;;;;500316;237;1650;-41
2022/12/27 06:36:29;;;;;;;;;;;21.20;39.40;;;;;;500517;237;1958;-42
2022/12/27 06:38:30;;;;;;;;;;;21.20;39.30;;;;;;500450;237;1898;-44
2022/12/27 06:40:32;;;;;;;;;;;21.30;39.30;;;;;;500631;237;2040;-42
2022/12/27 06:42:34;;;;;;;;;;;21.20;39.20;;;;;;500578;237;2419;-43
2022/12/27 06:44:35;;;;;;;;;;;21.20;39.20;;;;;;500478;237;2337;-44
2022/12/27 06:46:37;;;;;;;;;;;21.10;39.30;;;;;;500603;237;1942;-43
2022/12/27 06:48:39;;;;;;;;;;;21.20;39.20;;;;;;500408;237;1919;-43
2022/12/27 06:50:41;;;;;;;;;;;21.20;39.20;;;;;;500460;237;2174;-40
2022/12/27 06:52:42;;;;;;;;;;;21.20;39.20;;;;;;500506;237;2026;-43
2022/12/27 06:54:44;;;;;;;;;;;21.30;39.20;;;;;;500310;237;2371;-43
2022/12/27 06:56:45;;;;;;;;;;;21.20;39.10;;;;;;500095;238;2731;-43
2022/12/27 06:58:47;;;;;;;;;;;21.20;39.10;;;;;;500365;237;2274;-43
2022/12/27 07:00:48;;;;;;;;;;;21.20;39.20;;;;;;500232;237;2193;-43
2022/12/27 07:02:50;;;;;;;;;;;21.20;39.20;;;;;;500310;237;2532;-41
2022/12/27 07:04:51;;;;;;;;;;;21.20;39.20;;;;;;500427;237;2274;-43
2022/12/27 07:06:53;;;;;;;;;;;21.20;39.10;;;;;;500104;237;1864;-40
2022/12/27 07:08:57;;;;;;;;;;;21.30;39.10;;;;;;500065;238;2458;-43
2022/12/27 07:10:58;;;;;;;;;;;21.30;39.00;;;;;;500239;237;2657;-41
2022/12/27 07:13:00;;;;;;;;;;;21.30;38.90;;;;;;500390;237;2315;-43
2022/12/27 07:15:01;;;;;;;;;;;21.30;38.80;;;;;;500485;237;1706;-43
2022/12/27 07:17:04;;;;;;;;;;;21.40;38.70;;;;;;500291;237;1676;-41
2022/12/27 07:19:06;;;;;;;;;;;21.40;38.60;;;;;;500325;237;1701;-43
2022/12/27 07:21:08;;;;;;;;;;;21.40;38.60;;;;;;500195;237;2262;-40
2022/12/27 07:23:09;;;;;;;;;;;21.40;38.70;;;;;;500368;237;1931;-40
2022/12/27 07:25:11;;;;;;;;;;;21.40;38.60;;;;;;500395;237;1860;-41
2022/12/27 07:27:14;;;;;;;;;;;21.40;38.60;;;;;;500338;237;1696;-41
2022/12/27 07:29:14;;;;;;;;;;;21.40;38.50;;;;;;500280;237;1810;-43
2022/12/27 07:31:15;;;;;;;;;;;21.40;38.40;;;;;;500155;237;1702;-41
2022/12/27 07:33:17;;;;;;;;;;;21.40;38.50;;;;;;500422;237;2170;-44
2022/12/27 07:35:18;;;;;;;;;;;21.40;38.40;;;;;;500303;237;2160;-43
2022/12/27 07:37:20;;;;;;;;;;;21.40;38.40;;;;;;500235;237;3183;-43
2022/12/27 07:39:21;;;;;;;;;;;21.50;38.30;;;;;;500522;237;2080;-42
2022/12/27 07:41:23;;;;;;;;;;;21.50;38.30;;;;;;500217;237;2728;-43
2022/12/27 07:43:25;;;;;;;;;;;21.50;38.20;;;;;;500300;237;2192;-43
2022/12/27 07:45:27;;;;;;;;;;;21.50;38.20;;;;;;500247;237;1903;-43
2022/12/27 07:47:29;;;;;;;;;;;21.50;38.10;;;;;;500317;237;1981;-43
2022/12/27 07:49:30;;;;;;;;;;;21.50;38.10;;;;;;500273;237;2704;-40
2022/12/27 07:51:32;;;;;;;;;;;21.50;38.20;;;;;;500398;237;1966;-43
2022/12/27 07:53:33;;;;;;;;;;;21.50;38.10;;;;;;500246;238;1879;-40
2022/12/27 07:55:34;;;;;;;;;;;21.50;38.10;;;;;;500503;237;1748;-42
2022/12/27 07:57:36;;;;;;;;;;;21.50;38.10;;;;;;500364;237;2193;-43
2022/12/27 07:59:38;;;;;;;;;;;21.50;38.10;;;;;;500644;237;1704;-44
2022/12/27 08:04:00;;;;;;;;;;;21.50;38.10;;;;;;500447;238;1789;-40
2022/12/27 08:06:02;;;;;;;;;;;21.50;38.10;;;;;;500240;237;2059;-43
2022/12/27 08:08:03;;;;;;;;;;;21.40;38.00;;;;;;500325;237;1960;-44
2022/12/27 08:10:05;;;;;;;;;;;21.40;38.10;;;;;;500539;237;1729;-44
2022/12/27 08:12:06;;;;;;;;;;;21.50;38.00;;;;;;500256;237;1784;-40
2022/12/27 08:14:08;;;;;;;;;;;21.50;38.00;;;;;;500474;237;2011;-42
2022/12/27 08:16:10;;;;;;;;;;;21.50;37.90;;;;;;500380;237;1968;-43
2022/12/27 08:18:12;;;;;;;;;;;21.50;37.90;;;;;;500488;237;1987;-41
2022/12/27 08:20:13;;;;;;;;;;;21.50;37.90;;;;;;500349;237;1878;-43
2022/12/27 08:22:15;;;;;;;;;;;21.50;37.80;;;;;;500383;237;2187;-40
2022/12/27 08:24:16;;;;;;;;;;;21.50;37.80;;;;;;500519;237;1766;-44
2022/12/27 08:26:18;;;;;;;;;;;21.50;37.80;;;;;;500521;237;1995;-43
2022/12/27 08:28:20;;;;;;;;;;;21.60;37.80;;;;;;500124;238;2001;-41
2022/12/27 08:30:21;;;;;;;;;;;21.50;37.80;;;;;;500500;237;2029;-41
2022/12/27 08:32:23;;;;;;;;;;;21.60;37.80;;;;;;500600;237;2027;-43
2022/12/27 08:34:25;;;;;;;;;;;21.50;37.80;;;;;;500383;238;4412;-43
2022/12/27 08:36:26;;;;;;;;;;;21.50;37.80;;;;;;500434;237;1794;-43
2022/12/27 08:38:28;;;;;;;;;;;21.50;37.70;;;;;;500537;237;2028;-40
2022/12/27 08:40:30;;;;;;;;;;;21.50;37.80;;;;;;500405;237;2103;-40
2022/12/27 08:42:31;;;;;;;;;;;21.50;37.90;;;;;;500476;237;2480;-44
2022/12/27 08:44:32;;;;;;;;;;;21.50;37.90;;;;;;500327;237;2033;-43
2022/12/27 08:46:35;;;;;;;;;;;21.50;37.80;;;;;;500354;237;1656;-43
2022/12/27 08:48:36;;;;;;;;;;;21.50;37.70;;;;;;500363;237;1698;-43
2022/12/27 08:50:37;;;;;;;;;;;21.50;37.70;;;;;;500366;237;1683;-42
2022/12/27 08:52:39;;;;;;;;;;;21.50;37.70;;;;;;500331;237;2322;-43
2022/12/27 08:54:40;;;;;;;;;;;21.50;37.70;;;;;;500514;237;1712;-42
2022/12/27 08:56:42;;;;;;;;;;;21.50;37.70;;;;;;500619;237;2380;-41
2022/12/27 08:58:44;;;;;;;;;;;21.50;37.80;;;;;;500462;237;1727;-43
2022/12/27 09:00:46;;;;;;;;;;;21.50;37.70;;;;;;500413;237;1716;-41
2022/12/27 09:02:48;;;;;;;;;;;21.50;37.70;;;;;;500465;237;2191;-44
2022/12/27 09:04:51;;;;;;;;;;;21.50;37.70;;;;;;500431;237;1821;-43
2022/12/27 09:06:52;;;;;;;;;;;21.50;37.80;;;;;;500461;237;2253;-41
2022/12/27 09:08:56;;;;;;;;;;;21.40;37.80;;;;;;500484;237;2144;-43
2022/12/27 09:10:58;;;;;;;;;;;21.50;37.80;;;;;;500507;237;1996;-42
2022/12/27 09:13:00;;;;;;;;;;;21.40;37.80;;;;;;500465;237;2240;-43
2022/12/27 09:15:01;;;;;;;;;;;21.40;37.90;;;;;;500464;237;1861;-43
2022/12/27 09:17:05;;;;;;;;;;;21.40;37.90;;;;;;500450;237;1731;-43
2022/12/27 09:19:04;;;;;;;;;;;21.40;37.90;;;;;;500203;238;1930;-40
2022/12/27 09:21:06;;;;;;;;;;;21.40;37.90;;;;;;500317;237;2188;-43
2022/12/27 09:23:07;;;;;;;;;;;21.40;37.90;;;;;;500206;237;2188;-44
2022/12/27 09:25:09;;;;;;;;;;;21.40;37.90;;;;;;500344;237;1871;-43
2022/12/27 09:27:10;;;;;;;;;;;21.30;37.90;;;;;;500414;237;1935;-43
2022/12/27 09:29:12;;;;;;;;;;;21.30;38.00;;;;;;500421;237;2479;-43
2022/12/27 09:31:13;;;;;;;;;;;21.40;38.00;;;;;;500335;237;1547;-41
2022/12/27 09:33:15;;;;;;;;;;;21.40;38.00;;;;;;500329;237;2238;-43
2022/12/27 09:35:19;;;;;;;;;;;21.40;37.90;;;;;;500506;238;1917;-43
2022/12/27 09:37:21;;;;;;;;;;;21.40;37.80;;;;;;500341;237;2219;-43
2022/12/27 09:39:23;;;;;;;;;;;21.40;37.80;;;;;;500458;237;1520;-42
2022/12/27 09:41:24;;;;;;;;;;;21.50;37.80;;;;;;500262;237;2313;-43
2022/12/27 09:43:27;;;;;;;;;;;21.40;37.70;;;;;;500229;237;2344;-43
2022/12/27 09:45:28;;;;;;;;;;;21.40;37.80;;;;;;500297;237;2838;-43
2022/12/27 09:47:30;;;;;;;;;;;21.50;37.70;;;;;;500304;237;1967;-43
2022/12/27 09:49:32;;;;;;;;;;;21.50;37.70;;;;;;500200;237;2275;-43
2022/12/27 09:51:35;;;;;;;;;;;21.50;37.60;;;;;;500125;237;1916;-43
2022/12/27 09:53:36;;;;;;;;;;;21.50;37.60;;;;;;500252;237;2290;-41
2022/12/27 09:55:39;;;;;;;;;;;21.50;37.70;;;;;;500076;238;2437;-43
2022/12/27 09:57:41;;;;;;;;;;;21.40;37.70;;;;;;500131;237;1858;-43
2022/12/27 09:59:42;;;;;;;;;;;21.50;37.70;;;;;;500043;237;1949;-42
2022/12/27 10:01:46;;;;;;;;;;;21.40;37.70;;;;;;500172;237;2419;-40
2022/12/27 10:03:45;;;;;;;;;;;21.40;37.70;;;;;;500130;238;3747;-43
2022/12/27 10:05:47;;;;;;;;;;;21.40;37.70;;;;;;500286;237;3360;-43
2022/12/27 10:07:48;;;;;;;;;;;21.40;37.80;;;;;;500392;237;1876;-43
2022/12/27 10:09:50;;;;;;;;;;;21.30;37.80;;;;;;500171;237;1823;-43
2022/12/27 10:11:51;;;;;;;;;;;21.40;37.80;;;;;;500110;237;2138;-43
2022/12/27 10:13:53;;;;;;;;;;;21.30;37.80;;;;;;500238;237;2176;-43
2022/12/27 10:15:54;;;;;;;;;;;21.30;37.80;;;;;;500186;237;1895;-43
2022/12/27 10:17:55;;;;;;;;;;;21.30;37.70;;;;;;500122;237;1533;-41
2022/12/27 10:19:57;;;;;;;;;;;21.40;37.70;;;;;;500184;237;2449;-43
2022/12/27 10:21:58;;;;;;;;;;;21.40;37.60;;;;;;500217;237;2243;-44
2022/12/27 10:24:00;;;;;;;;;;;21.40;37.60;;;;;;500326;237;2364;-43
2022/12/27 10:26:01;;;;;;;;;;;21.40;37.60;;;;;;500360;238;2148;-43
2022/12/27 10:28:03;;;;;;;;;;;21.40;37.60;;;;;;500356;237;1945;-41
2022/12/27 10:30:05;;;;;;;;;;;21.40;37.60;;;;;;500313;237;2254;-43
2022/12/27 10:32:07;;;;;;;;;;;21.40;37.50;;;;;;500313;237;2535;-42
2022/12/27 10:34:08;;;;;;;;;;;21.40;37.50;;;;;;500429;237;1817;-43
2022/12/27 10:36:10;;;;;;;;;;;21.40;37.60;;;;;;500318;237;2443;-43
2022/12/27 10:38:11;;;;;;;;;;;21.50;37.50;;;;;;500525;237;2124;-40
2022/12/27 10:40:13;;;;;;;;;;;21.40;37.40;;;;;;500248;237;2343;-43
2022/12/27 10:42:15;;;;;;;;;;;21.50;37.40;;;;;;500388;237;2223;-40
2022/12/27 10:44:19;;;;;;;;;;;21.50;37.40;;;;;;500190;237;2283;-43
2022/12/27 10:46:24;;;;;;;;;;;21.50;37.40;;;;;;500087;237;1960;-44
2022/12/27 10:48:25;;;;;;;;;;;21.50;37.30;;;;;;500252;237;1630;-43
2022/12/27 10:50:27;;;;;;;;;;;21.50;37.20;;;;;;500219;237;2087;-43
2022/12/27 10:52:28;;;;;;;;;;;21.50;37.20;;;;;;500288;237;2654;-40
2022/12/27 10:54:31;;;;;;;;;;;21.50;37.20;;;;;;500276;237;1814;-43
2022/12/27 10:56:32;;;;;;;;;;;21.50;37.20;;;;;;500360;237;2180;-43
2022/12/27 10:58:34;;;;;;;;;;;21.50;37.10;;;;;;500291;237;1990;-42
2022/12/27 11:00:35;;;;;;;;;;;21.50;37.20;;;;;;500307;237;2708;-43
2022/12/27 11:02:37;;;;;;;;;;;21.50;37.20;;;;;;500418;237;2161;-43
2022/12/27 11:04:38;;;;;;;;;;;21.50;37.20;;;;;;500382;237;1892;-41
2022/12/27 11:06:40;;;;;;;;;;;21.50;37.20;;;;;;500258;237;1723;-43
2022/12/27 11:08:41;;;;;;;;;;;21.40;37.20;;;;;;500228;237;1920;-43
2022/12/27 11:10:43;;;;;;;;;;;21.40;37.20;;;;;;500306;237;2149;-41
2022/12/27 11:12:45;;;;;;;;;;;21.40;37.20;;;;;;500291;237;2182;-43
2022/12/27 11:14:46;;;;;;;;;;;21.40;37.20;;;;;;500317;237;2195;-42
2022/12/27 11:16:48;;;;;;;;;;;21.40;37.20;;;;;;499661;238;1975;-43
2022/12/27 11:18:49;;;;;;;;;;;21.40;37.10;;;;;;500427;237;2290;-40
2022/12/27 11:20:50;;;;;;;;;;;21.40;37.10;;;;;;500105;238;2251;-43
2022/12/27 11:22:52;;;;;;;;;;;21.50;37.10;;;;;;500373;237;2193;-43
2022/12/27 11:24:54;;;;;;;;;;;21.50;37.00;;;;;;500123;237;1963;-43
2022/12/27 11:26:57;;;;;;;;;;;21.50;36.80;;;;;;500382;237;2078;-42
2022/12/27 11:28:57;;;;;;;;;;;21.60;36.80;;;;;;500091;238;2247;-43
2022/12/27 11:31:02;;;;;;;;;;;21.70;36.70;;;;;;500251;237;2231;-40
2022/12/27 11:33:03;;;;;;;;;;;21.70;36.60;;;;;;499995;237;1587;-40
2022/12/27 11:35:05;;;;;;;;;;;21.70;36.40;;;;;;500171;237;1694;-44
2022/12/27 11:37:09;;;;;;;;;;;21.70;36.50;;;;;;500096;237;1656;-44
2022/12/27 11:39:08;;;;;;;;;;;21.70;36.50;;;;;;499866;238;1722;-43
2022/12/27 11:41:10;;;;;;;;;;;21.80;36.40;;;;;;500179;237;2549;-44
2022/12/27 11:43:12;;;;;;;;;;;22.00;36.10;;;;;;500012;237;2405;-44
2022/12/27 11:45:13;;;;;;;;;;;22.20;35.70;;;;;;500068;237;1970;-43
2022/12/27 11:47:15;;;;;;;;;;;22.30;35.20;;;;;;500082;237;2401;-43
2022/12/27 11:49:16;;;;;;;;;;;22.50;35.20;;;;;;500067;237;1757;-43
2022/12/27 11:51:18;;;;;;;;;;;22.60;35.10;;;;;;500043;237;2481;-43
2022/12/27 11:53:19;;;;;;;;;;;22.50;35.00;;;;;;500159;237;2520;-43
2022/12/27 11:55:21;;;;;;;;;;;22.40;35.30;;;;;;500052;237;2814;-43
2022/12/27 11:57:23;;;;;;;;;;;22.30;35.40;;;;;;500015;237;1735;-43
2022/12/27 11:59:24;;;;;;;;;;;22.20;35.60;;;;;;500006;237;1700;-43
2022/12/27 12:01:26;;;;;;;;;;;22.20;35.70;;;;;;500039;237;1595;-43
2022/12/27 12:03:27;;;;;;;;;;;22.20;35.80;;;;;;499906;237;2195;-43
2022/12/27 12:05:28;;;;;;;;;;;22.00;35.90;;;;;;500112;237;2241;-42
2022/12/27 12:07:30;;;;;;;;;;;22.10;35.90;;;;;;500019;237;1632;-43
2022/12/27 12:09:31;;;;;;;;;;;22.10;36.00;;;;;;499990;237;1811;-43
2022/12/27 12:11:32;;;;;;;;;;;22.00;35.90;;;;;;499910;237;1691;-44
2022/12/27 12:13:34;;;;;;;;;;;22.00;35.80;;;;;;499973;238;2452;-43
2022/12/27 12:15:35;;;;;;;;;;;22.00;35.80;;;;;;499976;237;2181;-43
2022/12/27 12:17:36;;;;;;;;;;;22.00;35.90;;;;;;499958;237;2183;-43
2022/12/27 12:19:38;;;;;;;;;;;22.00;35.90;;;;;;500054;237;1763;-43
2022/12/27 12:21:40;;;;;;;;;;;22.00;35.80;;;;;;499889;237;2291;-43
2022/12/27 12:23:41;;;;;;;;;;;22.00;35.90;;;;;;499871;237;2147;-44
2022/12/27 12:25:42;;;;;;;;;;;22.00;36.00;;;;;;499785;237;2082;-43
2022/12/27 12:27:44;;;;;;;;;;;21.90;36.00;;;;;;499809;237;1903;-43
2022/12/27 12:29:45;;;;;;;;;;;21.90;36.00;;;;;;499806;237;1921;-43
2022/12/27 12:31:48;;;;;;;;;;;21.90;36.10;;;;;;499805;237;2238;-43
2022/12/27 12:33:49;;;;;;;;;;;21.80;36.10;;;;;;499810;237;1935;-43
2022/12/27 12:35:50;;;;;;;;;;;21.80;36.10;;;;;;499948;237;1735;-44
2022/12/27 12:37:53;;;;;;;;;;;21.80;36.10;;;;;;500017;237;1793;-43
2022/12/27 12:39:54;;;;;;;;;;;21.80;36.10;;;;;;500000;237;2317;-44
2022/12/27 12:41:55;;;;;;;;;;;21.90;36.10;;;;;;499963;237;1841;-43
2022/12/27 12:43:57;;;;;;;;;;;21.90;36.10;;;;;;499916;237;2183;-44
2022/12/27 12:45:58;;;;;;;;;;;21.80;36.20;;;;;;499933;237;1806;-43
2022/12/27 12:47:59;;;;;;;;;;;21.80;36.10;;;;;;499945;237;2224;-43
2022/12/27 12:50:00;;;;;;;;;;;21.80;36.10;;;;;;500119;237;2525;-44
2022/12/27 12:52:02;;;;;;;;;;;21.90;36.10;;;;;;500013;237;2052;-44
2022/12/27 12:54:03;;;;;;;;;;;21.90;35.90;;;;;;500270;237;3411;-43
2022/12/27 12:56:04;;;;;;;;;;;21.90;36.10;;;;;;499912;237;1839;-43
2022/12/27 12:58:06;;;;;;;;;;;21.90;36.10;;;;;;500282;237;2227;-40
2022/12/27 13:00:08;;;;;;;;;;;21.80;36.10;;;;;;500274;238;1946;-43
2022/12/27 13:02:10;;;;;;;;;;;21.80;36.10;;;;;;500378;237;2918;-42
2022/12/27 13:04:12;;;;;;;;;;;21.80;36.00;;;;;;500255;237;2545;-43
2022/12/27 13:06:13;;;;;;;;;;;21.80;36.20;;;;;;500329;237;2382;-41
2022/12/27 13:08:14;;;;;;;;;;;21.80;36.10;;;;;;500286;237;2107;-43
2022/12/27 13:10:16;;;;;;;;;;;21.70;36.10;;;;;;500495;237;1686;-43
2022/12/27 13:12:17;;;;;;;;;;;21.70;36.20;;;;;;500277;237;2079;-40
2022/12/27 13:14:19;;;;;;;;;;;21.70;36.20;;;;;;500377;237;1850;-43
2022/12/27 13:16:21;;;;;;;;;;;21.70;36.30;;;;;;500285;237;1711;-43
2022/12/27 13:18:22;;;;;;;;;;;21.60;36.30;;;;;;500377;237;1837;-43
2022/12/27 13:20:24;;;;;;;;;;;21.60;36.30;;;;;;500359;237;2170;-40
2022/12/27 13:22:25;;;;;;;;;;;21.60;36.10;;;;;;500369;237;2454;-43
2022/12/27 13:24:27;;;;;;;;;;;21.70;36.10;;;;;;500279;237;2188;-43
2022/12/27 13:26:28;;;;;;;;;;;21.70;36.20;;;;;;500258;237;2414;-43
2022/12/27 13:28:29;;;;;;;;;;;21.70;36.10;;;;;;500278;237;2018;-43
2022/12/27 13:30:31;;;;;;;;;;;21.70;36.10;;;;;;500307;237;1686;-43
2022/12/27 13:32:33;;;;;;;;;;;21.70;36.10;;;;;;500299;237;2127;-40
2022/12/27 13:34:35;;;;;;;;;;;21.70;36.10;;;;;;500339;237;2110;-43
2022/12/27 13:36:36;;;;;;;;;;;21.70;36.10;;;;;;500248;237;1943;-41
2022/12/27 13:38:38;;;;;;;;;;;21.70;36.10;;;;;;500230;237;2395;-44
2022/12/27 13:40:39;;;;;;;;;;;21.70;36.10;;;;;;500223;237;2056;-44